Time;durP1;ratioP1;P1;durP2;ratioP2;P2;SDS_P1;SDS_P2;PMS_P1;PMS_P2;Temp;Humidity;BMP_temperature;BMP_pressure;BME280_temperature;BME280_humidity;BME280_pressure;Samples;Min_cycle;Max_cycle;Signal;HPM_P1;HPM_P2
2022/03/29 00:02:05;;;;;;;17.30;12.85;;;;;;;;;;5098310;28;20036;-73
2022/03/29 00:04:31;;;;;;;20.50;13.60;;;;;;;;;;5099187;28;20031;-73
2022/03/29 00:06:57;;;;;;;21.15;13.70;;;;;;;;;;5094980;28;20039;-73
2022/03/29 00:09:23;;;;;;;19.55;13.65;;;;;;;;;;5105019;28;20027;-73
2022/03/29 00:11:49;;;;;;;24.33;14.35;;;;;;;;;;5102887;28;20048;-73
2022/03/29 00:14:15;;;;;;;24.23;14.18;;;;;;;;;;5079908;28;20085;-72
2022/03/29 00:16:42;;;;;;;21.02;15.05;;;;;;;;;;5094603;28;20061;-73
2022/03/29 00:19:08;;;;;;;19.48;13.30;;;;;;;;;;5091474;28;20032;-73
2022/03/29 00:21:34;;;;;;;20.10;14.45;;;;;;;;;;5093634;28;20039;-73
2022/03/29 00:24:01;;;;;;;22.55;14.48;;;;;;;;;;5086398;28;20029;-73
2022/03/29 00:26:27;;;;;;;21.48;14.15;;;;;;;;;;5085294;28;20052;-74
2022/03/29 00:28:54;;;;;;;19.80;14.18;;;;;;;;;;5094419;28;20379;-72
2022/03/29 00:31:20;;;;;;;24.45;14.82;;;;;;;;;;5101183;28;20043;-72
2022/03/29 00:33:47;;;;;;;25.35;15.30;;;;;;;;;;5108247;28;20479;-72
2022/03/29 00:36:13;;;;;;;23.50;16.58;;;;;;;;;;5086304;28;20072;-73
2022/03/29 00:38:41;;;;;;;28.23;16.02;;;;;;;;;;5089603;28;20030;-72
2022/03/29 00:41:07;;;;;;;26.70;16.45;;;;;;;;;;5092375;28;20032;-73
2022/03/29 00:43:33;;;;;;;21.30;15.95;;;;;;;;;;5092285;28;20379;-73
2022/03/29 00:45:59;;;;;;;30.15;16.70;;;;;;;;;;5093415;28;20093;-73
2022/03/29 00:48:26;;;;;;;23.80;15.40;;;;;;;;;;5080141;28;20029;-73
2022/03/29 00:50:52;;;;;;;28.05;16.25;;;;;;;;;;5077050;28;20058;-73
2022/03/29 00:53:19;;;;;;;24.45;15.52;;;;;;;;;;5098893;28;20044;-73
2022/03/29 00:55:48;;;;;;;27.50;15.63;;;;;;;;;;5081159;28;20023;-73
2022/03/29 00:58:15;;;;;;;25.05;17.00;;;;;;;;;;5094724;28;20371;-73
2022/03/29 01:00:41;;;;;;;23.52;16.92;;;;;;;;;;5104388;28;20370;-74
2022/03/29 01:03:07;;;;;;;26.17;15.48;;;;;;;;;;5078015;28;20053;-73
2022/03/29 01:05:33;;;;;;;22.08;15.43;;;;;;;;;;5106092;28;20031;-73
2022/03/29 01:08:00;;;;;;;28.88;16.30;;;;;;;;;;5090774;28;20028;-73
2022/03/29 01:10:26;;;;;;;22.55;15.90;;;;;;;;;;5079405;28;20032;-73
2022/03/29 01:12:53;;;;;;;21.45;15.90;;;;;;;;;;5101273;28;20027;-73
2022/03/29 01:15:20;;;;;;;25.00;16.55;;;;;;;;;;5091861;28;20036;-73
2022/03/29 01:17:50;;;;;;;22.60;14.55;;;;;;;;;;5091511;28;20535;-74
2022/03/29 01:20:29;;;;;;;25.92;14.57;;;;;;;;;;5073141;28;20033;-73
2022/03/29 01:22:56;;;;;;;24.40;16.45;;;;;;;;;;5090622;28;20353;-74
2022/03/29 01:25:26;;;;;;;24.27;16.30;;;;;;;;;;5105945;28;20027;-74
2022/03/29 01:27:53;;;;;;;22.30;14.27;;;;;;;;;;5080700;28;20081;-73
2022/03/29 01:30:20;;;;;;;20.98;14.30;;;;;;;;;;5096180;28;20039;-73
2022/03/29 01:32:51;;;;;;;22.42;15.55;;;;;;;;;;5085430;28;20024;-73
2022/03/29 01:35:18;;;;;;;22.77;14.68;;;;;;;;;;5092430;28;20085;-74
2022/03/29 01:37:44;;;;;;;24.58;14.80;;;;;;;;;;5092194;28;20031;-73
2022/03/29 01:40:15;;;;;;;22.38;14.63;;;;;;;;;;5092815;28;20502;-74
2022/03/29 01:42:46;;;;;;;25.25;14.65;;;;;;;;;;5093311;28;20115;-74
2022/03/29 01:45:12;;;;;;;21.63;14.50;;;;;;;;;;5104444;28;20019;-74
2022/03/29 01:47:39;;;;;;;20.92;14.50;;;;;;;;;;5084756;28;20051;-73
2022/03/29 01:50:05;;;;;;;21.20;14.80;;;;;;;;;;5087315;28;20391;-74
2022/03/29 01:52:38;;;;;;;21.20;14.55;;;;;;;;;;5079834;28;20058;-74
2022/03/29 01:55:04;;;;;;;24.98;14.57;;;;;;;;;;5083097;28;20029;-73
2022/03/29 01:57:30;;;;;;;21.73;14.63;;;;;;;;;;5074994;28;20028;-73
2022/03/29 02:02:41;;;;;;;22.98;14.07;;;;;;;;;;5074942;28;20079;-72
2022/03/29 02:05:07;;;;;;;28.10;14.68;;;;;;;;;;5097566;28;20094;-73
2022/03/29 02:07:33;;;;;;;23.73;13.82;;;;;;;;;;5082717;28;20020;-72
2022/03/29 02:09:59;;;;;;;21.30;14.20;;;;;;;;;;5090811;28;20036;-73
2022/03/29 02:12:25;;;;;;;22.92;14.73;;;;;;;;;;5085691;28;20049;-73
2022/03/29 02:14:51;;;;;;;24.13;14.85;;;;;;;;;;5076289;28;20040;-73
2022/03/29 02:17:18;;;;;;;22.95;14.35;;;;;;;;;;5089500;28;20410;-72
2022/03/29 02:19:44;;;;;;;20.45;14.48;;;;;;;;;;5101823;28;20038;-73
2022/03/29 02:22:10;;;;;;;25.75;15.02;;;;;;;;;;5098296;28;20060;-73
2022/03/29 02:24:36;;;;;;;25.65;15.60;;;;;;;;;;5091929;28;20064;-73
2022/03/29 02:27:02;;;;;;;25.02;14.55;;;;;;;;;;5082234;28;20431;-73
2022/03/29 02:29:28;;;;;;;23.48;14.93;;;;;;;;;;5101142;28;20024;-73
2022/03/29 02:31:54;;;;;;;24.90;15.07;;;;;;;;;;5103760;28;20052;-73
2022/03/29 02:34:21;;;;;;;25.95;15.77;;;;;;;;;;5094644;28;20028;-73
2022/03/29 02:36:47;;;;;;;25.55;14.45;;;;;;;;;;5097541;28;20028;-73
2022/03/29 02:39:13;;;;;;;23.23;14.85;;;;;;;;;;5091976;28;20085;-73
2022/03/29 02:41:39;;;;;;;25.83;15.05;;;;;;;;;;5092420;28;20032;-72
2022/03/29 02:44:05;;;;;;;22.45;15.02;;;;;;;;;;5076949;28;20035;-73
2022/03/29 02:46:33;;;;;;;29.08;16.50;;;;;;;;;;5078562;28;20036;-73
2022/03/29 02:48:59;;;;;;;23.52;15.82;;;;;;;;;;5098861;28;20115;-73
2022/03/29 02:51:25;;;;;;;26.48;16.67;;;;;;;;;;5098175;28;20039;-74
2022/03/29 02:53:51;;;;;;;26.85;16.45;;;;;;;;;;5087361;28;20056;-73
2022/03/29 02:56:17;;;;;;;25.45;15.35;;;;;;;;;;5093378;28;20028;-73
2022/03/29 02:58:43;;;;;;;25.23;17.10;;;;;;;;;;5089235;28;20055;-74
2022/03/29 03:01:09;;;;;;;23.02;14.20;;;;;;;;;;5095573;28;20468;-74
2022/03/29 03:03:35;;;;;;;25.50;14.82;;;;;;;;;;5088473;28;20112;-73
2022/03/29 03:06:01;;;;;;;27.42;15.45;;;;;;;;;;5110220;28;20028;-74
2022/03/29 03:08:27;;;;;;;30.33;16.17;;;;;;;;;;5086175;28;20029;-74
2022/03/29 03:10:54;;;;;;;26.90;16.25;;;;;;;;;;5113767;28;20118;-74
2022/03/29 03:13:20;;;;;;;25.30;15.90;;;;;;;;;;5075833;28;20099;-73
2022/03/29 03:15:46;;;;;;;26.15;15.32;;;;;;;;;;5095829;28;20039;-74
2022/03/29 03:18:13;;;;;;;24.27;15.55;;;;;;;;;;5088352;28;20040;-74
2022/03/29 03:20:39;;;;;;;30.85;15.88;;;;;;;;;;5077031;28;20059;-74
2022/03/29 03:23:05;;;;;;;24.38;15.40;;;;;;;;;;5073643;28;20066;-74
2022/03/29 03:25:31;;;;;;;28.10;15.77;;;;;;;;;;5100696;28;20150;-73
2022/03/29 03:27:57;;;;;;;23.13;14.98;;;;;;;;;;5084268;28;20078;-73
2022/03/29 03:30:23;;;;;;;21.70;14.23;;;;;;;;;;5088270;28;20034;-73
2022/03/29 03:32:49;;;;;;;24.38;15.35;;;;;;;;;;5105917;28;20070;-73
2022/03/29 03:35:15;;;;;;;23.08;14.25;;;;;;;;;;5091168;28;20117;-74
2022/03/29 03:37:42;;;;;;;22.55;14.27;;;;;;;;;;5093430;28;20020;-73
2022/03/29 03:40:09;;;;;;;26.50;14.85;;;;;;;;;;5093990;28;20036;-73
2022/03/29 03:42:37;;;;;;;28.45;14.65;;;;;;;;;;5085872;28;20039;-73
2022/03/29 03:45:03;;;;;;;26.80;14.93;;;;;;;;;;5089232;28;20031;-73
2022/03/29 03:47:30;;;;;;;26.58;14.15;;;;;;;;;;5093444;28;20534;-73
2022/03/29 03:49:56;;;;;;;25.23;14.38;;;;;;;;;;5090565;28;20503;-73
2022/03/29 03:52:22;;;;;;;26.42;14.52;;;;;;;;;;5102200;28;20048;-73
2022/03/29 03:54:48;;;;;;;28.58;15.15;;;;;;;;;;5088431;28;20030;-73
2022/03/29 03:57:15;;;;;;;25.38;14.82;;;;;;;;;;5090707;28;20027;-73
2022/03/29 03:59:41;;;;;;;25.88;14.60;;;;;;;;;;5088715;28;20024;-73
2022/03/29 04:02:07;;;;;;;25.45;14.48;;;;;;;;;;5095300;28;20020;-73
2022/03/29 04:04:33;;;;;;;24.83;15.27;;;;;;;;;;5063872;28;20098;-73
2022/03/29 04:06:59;;;;;;;32.85;15.52;;;;;;;;;;5102930;28;20028;-73
2022/03/29 04:09:25;;;;;;;25.38;15.57;;;;;;;;;;5101063;28;20044;-73
2022/03/29 04:11:51;;;;;;;30.90;16.13;;;;;;;;;;5093196;28;20438;-73
2022/03/29 04:14:17;;;;;;;31.05;15.52;;;;;;;;;;5097115;28;20483;-73
2022/03/29 04:16:43;;;;;;;25.75;14.75;;;;;;;;;;5083223;28;20138;-73
2022/03/29 04:19:09;;;;;;;28.33;15.48;;;;;;;;;;5077437;28;20020;-73
2022/03/29 04:21:35;;;;;;;28.13;15.57;;;;;;;;;;5086390;28;20031;-73
2022/03/29 04:24:01;;;;;;;29.15;16.42;;;;;;;;;;5091449;28;20051;-73
2022/03/29 04:26:30;;;;;;;25.23;15.88;;;;;;;;;;5070696;28;20028;-73
2022/03/29 04:28:56;;;;;;;35.97;16.45;;;;;;;;;;5079458;28;20040;-73
2022/03/29 04:31:24;;;;;;;31.40;15.25;;;;;;;;;;5096634;28;20028;-73
2022/03/29 04:33:50;;;;;;;28.58;14.60;;;;;;;;;;5071118;28;20496;-73
2022/03/29 04:36:16;;;;;;;28.20;17.35;;;;;;;;;;5090399;28;20073;-72
2022/03/29 04:38:43;;;;;;;29.77;16.08;;;;;;;;;;5095732;28;20032;-73
2022/03/29 04:41:10;;;;;;;33.65;15.55;;;;;;;;;;5079171;28;20055;-73
2022/03/29 04:43:36;;;;;;;30.33;16.08;;;;;;;;;;5087808;28;20036;-79
2022/03/29 04:46:02;;;;;;;39.10;23.45;;;;;;;;;;5076267;28;20138;-76
2022/03/29 04:48:29;;;;;;;45.13;24.63;;;;;;;;;;5075632;28;20029;-75
2022/03/29 04:50:55;;;;;;;36.20;21.52;;;;;;;;;;5080786;28;20097;-74
2022/03/29 04:53:21;;;;;;;27.65;15.23;;;;;;;;;;5087139;28;20483;-73
2022/03/29 04:55:47;;;;;;;34.13;18.08;;;;;;;;;;5073432;28;20028;-73
2022/03/29 04:58:13;;;;;;;37.22;17.70;;;;;;;;;;5064321;28;20062;-72
2022/03/29 05:00:40;;;;;;;32.25;16.77;;;;;;;;;;5082193;28;20047;-74
2022/03/29 05:03:06;;;;;;;37.58;17.25;;;;;;;;;;5112750;28;20033;-73
2022/03/29 05:05:32;;;;;;;25.67;16.60;;;;;;;;;;5078292;28;20043;-73
2022/03/29 05:07:58;;;;;;;26.27;16.83;;;;;;;;;;5087910;28;20028;-73
2022/03/29 05:10:24;;;;;;;28.30;16.95;;;;;;;;;;5093444;28;20031;-73
2022/03/29 05:12:55;;;;;;;26.63;16.08;;;;;;;;;;5099654;28;20032;-72
2022/03/29 05:15:22;;;;;;;54.97;31.48;;;;;;;;;;5083656;28;20391;-74
2022/03/29 05:17:48;;;;;;;60.95;32.63;;;;;;;;;;5099182;28;20579;-74
2022/03/29 05:20:15;;;;;;;34.90;19.83;;;;;;;;;;5069951;28;20032;-73
2022/03/29 05:22:44;;;;;;;34.67;17.58;;;;;;;;;;5091215;28;20024;-72
2022/03/29 05:25:11;;;;;;;34.25;17.25;;;;;;;;;;5071118;28;20494;-73
2022/03/29 05:27:37;;;;;;;28.60;16.25;;;;;;;;;;5106391;28;20023;-73
2022/03/29 05:30:03;;;;;;;29.75;17.25;;;;;;;;;;5094484;28;20090;-73
2022/03/29 05:32:29;;;;;;;25.92;16.38;;;;;;;;;;5094815;28;20036;-73
2022/03/29 05:34:55;;;;;;;33.67;19.23;;;;;;;;;;5098120;28;20032;-75
2022/03/29 05:37:22;;;;;;;35.03;17.60;;;;;;;;;;5069827;28;20116;-78
2022/03/29 05:39:49;;;;;;;73.50;36.17;;;;;;;;;;5071547;28;20064;-72
2022/03/29 05:42:15;;;;;;;59.88;31.27;;;;;;;;;;5085415;28;20047;-74
2022/03/29 05:44:41;;;;;;;26.20;17.67;;;;;;;;;;5092543;28;20031;-74
2022/03/29 05:49:52;;;;;;;35.78;20.30;;;;;;;;;;5090877;28;20161;-75
2022/03/29 05:52:21;;;;;;;34.95;17.88;;;;;;;;;;5080825;28;20024;-74
2022/03/29 05:54:47;;;;;;;36.08;18.50;;;;;;;;;;5107785;28;20020;-74
2022/03/29 05:57:17;;;;;;;31.55;18.23;;;;;;;;;;5076019;28;20488;-74
2022/03/29 05:59:43;;;;;;;31.45;18.35;;;;;;;;;;5087765;28;20028;-74
2022/03/29 06:02:09;;;;;;;26.75;17.83;;;;;;;;;;5086322;28;20084;-74
2022/03/29 06:04:36;;;;;;;32.30;18.23;;;;;;;;;;5084078;28;20495;-74
2022/03/29 06:07:04;;;;;;;33.33;18.63;;;;;;;;;;5086357;28;20466;-73
2022/03/29 06:09:31;;;;;;;33.08;18.33;;;;;;;;;;5061897;28;20165;-74
2022/03/29 06:11:57;;;;;;;35.35;19.27;;;;;;;;;;5094953;28;20119;-73
2022/03/29 06:14:23;;;;;;;32.13;18.45;;;;;;;;;;5089197;28;20040;-73
2022/03/29 06:16:49;;;;;;;34.38;20.48;;;;;;;;;;5087694;28;20028;-73
2022/03/29 06:19:15;;;;;;;31.83;19.45;;;;;;;;;;5093632;28;20024;-73
2022/03/29 06:21:41;;;;;;;38.45;18.48;;;;;;;;;;5075142;28;20438;-73
2022/03/29 06:24:08;;;;;;;34.53;20.75;;;;;;;;;;5092326;28;20024;-73
2022/03/29 06:26:41;;;;;;;36.40;18.15;;;;;;;;;;5063629;28;20031;-73
2022/03/29 06:29:08;;;;;;;35.00;18.20;;;;;;;;;;5078538;28;20024;-73
2022/03/29 06:31:34;;;;;;;37.28;19.42;;;;;;;;;;5090822;28;20036;-73
2022/03/29 06:34:01;;;;;;;42.15;20.70;;;;;;;;;;5086764;28;20077;-73
2022/03/29 06:36:27;;;;;;;36.55;21.42;;;;;;;;;;5091324;28;21663;-73
2022/03/29 06:38:53;;;;;;;41.00;20.15;;;;;;;;;;5089494;28;20020;-73
2022/03/29 06:41:19;;;;;;;37.10;20.08;;;;;;;;;;5091418;28;20047;-73
2022/03/29 06:43:46;;;;;;;39.17;19.95;;;;;;;;;;5086402;28;20033;-73
2022/03/29 06:46:13;;;;;;;32.78;18.35;;;;;;;;;;5089159;28;20383;-74
2022/03/29 06:48:41;;;;;;;45.55;20.10;;;;;;;;;;5093163;28;20421;-74
2022/03/29 06:51:09;;;;;;;39.78;21.05;;;;;;;;;;5093304;28;20028;-74
2022/03/29 06:53:35;;;;;;;38.05;19.90;;;;;;;;;;5074922;28;20387;-74
2022/03/29 06:56:02;;;;;;;41.92;20.70;;;;;;;;;;5087157;28;20091;-73
2022/03/29 06:58:28;;;;;;;38.97;19.45;;;;;;;;;;5086071;28;20103;-73
2022/03/29 07:00:56;;;;;;;42.75;20.73;;;;;;;;;;5084188;28;20044;-73
2022/03/29 07:03:23;;;;;;;42.67;21.00;;;;;;;;;;5085052;28;20525;-73
2022/03/29 07:05:49;;;;;;;39.35;19.48;;;;;;;;;;5091390;28;20020;-73
2022/03/29 07:08:18;;;;;;;40.70;18.98;;;;;;;;;;5084447;28;20024;-73
2022/03/29 07:13:30;;;;;;;33.00;19.55;;;;;;;;;;5072581;28;20380;-73
2022/03/29 07:15:56;;;;;;;40.28;18.67;;;;;;;;;;5089014;28;20114;-73
2022/03/29 07:18:22;;;;;;;37.92;20.00;;;;;;;;;;5092132;28;20050;-73
2022/03/29 07:20:48;;;;;;;43.20;19.98;;;;;;;;;;5086684;28;20056;-73
2022/03/29 07:23:14;;;;;;;39.90;20.27;;;;;;;;;;5087820;28;20093;-73
2022/03/29 07:25:41;;;;;;;39.65;19.35;;;;;;;;;;5090986;28;20035;-73
2022/03/29 07:28:11;;;;;;;37.03;19.13;;;;;;;;;;5073661;28;20032;-73
2022/03/29 07:30:38;;;;;;;41.88;19.23;;;;;;;;;;5070551;28;20059;-73
2022/03/29 07:33:04;;;;;;;34.97;19.42;;;;;;;;;;5088480;28;20024;-73
2022/03/29 07:35:31;;;;;;;35.13;19.30;;;;;;;;;;5071710;28;20051;-73
2022/03/29 07:37:58;;;;;;;32.42;18.60;;;;;;;;;;5096470;28;20028;-73
2022/03/29 07:40:25;;;;;;;37.08;19.63;;;;;;;;;;5096679;28;20032;-73
2022/03/29 07:42:52;;;;;;;50.65;20.65;;;;;;;;;;5087705;28;20029;-73
2022/03/29 07:45:18;;;;;;;33.17;17.85;;;;;;;;;;5086452;28;20035;-73
2022/03/29 07:47:45;;;;;;;35.60;17.98;;;;;;;;;;5088938;28;20028;-73
2022/03/29 07:50:12;;;;;;;38.03;18.30;;;;;;;;;;5084435;28;20410;-73
2022/03/29 07:52:39;;;;;;;41.85;18.00;;;;;;;;;;5091336;28;20051;-74
2022/03/29 07:55:06;;;;;;;38.63;19.05;;;;;;;;;;5069894;28;20017;-73
2022/03/29 07:57:32;;;;;;;43.97;18.10;;;;;;;;;;5092330;28;20024;-73
2022/03/29 07:59:58;;;;;;;40.53;17.33;;;;;;;;;;5090920;28;20032;-73
2022/03/29 08:02:25;;;;;;;35.03;17.48;;;;;;;;;;5072804;28;20158;-73
2022/03/29 08:04:51;;;;;;;39.95;18.27;;;;;;;;;;5080322;28;20016;-73
2022/03/29 08:07:17;;;;;;;41.03;17.73;;;;;;;;;;5091333;28;20031;-73
2022/03/29 08:09:43;;;;;;;41.38;18.63;;;;;;;;;;5078334;28;20032;-73
2022/03/29 08:12:10;;;;;;;32.90;18.33;;;;;;;;;;5104724;28;20406;-73
2022/03/29 08:14:38;;;;;;;37.13;17.30;;;;;;;;;;5086016;28;20027;-73
2022/03/29 08:17:04;;;;;;;31.40;18.35;;;;;;;;;;5085576;28;20098;-73
2022/03/29 08:19:31;;;;;;;36.70;18.33;;;;;;;;;;5078442;28;20434;-73
2022/03/29 08:21:57;;;;;;;46.83;18.50;;;;;;;;;;5092291;28;20036;-73
2022/03/29 08:24:24;;;;;;;39.03;19.58;;;;;;;;;;5069240;28;20039;-73
2022/03/29 08:26:51;;;;;;;38.20;18.33;;;;;;;;;;5081328;28;20085;-73
2022/03/29 08:29:18;;;;;;;37.85;19.13;;;;;;;;;;5077246;28;20391;-73
2022/03/29 08:31:45;;;;;;;35.35;17.55;;;;;;;;;;5087876;28;20038;-73
2022/03/29 08:34:12;;;;;;;37.83;18.90;;;;;;;;;;5090377;28;20036;-73
2022/03/29 08:36:39;;;;;;;32.38;19.27;;;;;;;;;;5086572;28;20074;-73
2022/03/29 08:39:06;;;;;;;34.30;17.60;;;;;;;;;;5105737;28;20028;-73
2022/03/29 08:41:35;;;;;;;44.00;19.30;;;;;;;;;;5098966;28;20035;-73
2022/03/29 08:44:01;;;;;;;37.83;17.60;;;;;;;;;;5086849;28;20020;-73
2022/03/29 08:46:32;;;;;;;32.97;18.30;;;;;;;;;;5073427;28;20392;-73
2022/03/29 08:48:58;;;;;;;43.70;19.52;;;;;;;;;;5106405;28;20099;-73
2022/03/29 08:51:24;;;;;;;36.72;17.55;;;;;;;;;;5082612;28;20123;-73
2022/03/29 08:53:50;;;;;;;38.83;17.90;;;;;;;;;;5071226;28;20060;-73
2022/03/29 08:56:16;;;;;;;30.70;17.50;;;;;;;;;;5080162;28;20594;-73
2022/03/29 08:58:43;;;;;;;43.10;18.45;;;;;;;;;;5076763;28;20033;-73
2022/03/29 09:01:09;;;;;;;31.55;18.02;;;;;;;;;;5080525;28;20055;-73
2022/03/29 09:03:35;;;;;;;43.47;17.67;;;;;;;;;;5070686;28;20020;-73
2022/03/29 09:06:05;;;;;;;45.53;19.40;;;;;;;;;;5084305;28;20115;-73
2022/03/29 09:08:41;;;;;;;40.17;18.65;;;;;;;;;;5090107;28;20031;-73
2022/03/29 09:11:08;;;;;;;39.83;19.48;;;;;;;;;;5089524;28;20380;-73
2022/03/29 09:13:34;;;;;;;38.92;19.15;;;;;;;;;;5089584;28;20035;-74
2022/03/29 09:16:01;;;;;;;37.95;19.35;;;;;;;;;;5092312;28;20138;-73
2022/03/29 09:18:28;;;;;;;38.33;17.67;;;;;;;;;;5091106;28;20380;-74
2022/03/29 09:21:13;;;;;;;34.28;18.17;;;;;;;;;;5075431;28;20452;-73
2022/03/29 09:23:39;;;;;;;40.33;18.63;;;;;;;;;;5071701;28;20023;-74
2022/03/29 09:26:06;;;;;;;36.13;18.05;;;;;;;;;;5092458;28;20043;-74
2022/03/29 09:28:38;;;;;;;34.40;19.08;;;;;;;;;;5093619;28;20107;-74
2022/03/29 09:31:22;;;;;;;39.83;18.00;;;;;;;;;;5076573;28;20123;-74
2022/03/29 09:33:48;;;;;;;34.67;18.33;;;;;;;;;;5092864;28;20050;-73
2022/03/29 09:36:20;;;;;;;38.05;18.73;;;;;;;;;;5095002;28;20375;-74
2022/03/29 09:38:47;;;;;;;41.90;18.73;;;;;;;;;;5106767;28;20429;-74
2022/03/29 09:41:26;;;;;;;40.60;17.60;;;;;;;;;;5096514;28;20285;-74
2022/03/29 09:44:02;;;;;;;30.27;19.05;;;;;;;;;;5085376;28;20478;-74
2022/03/29 09:46:29;;;;;;;33.20;16.90;;;;;;;;;;5094688;28;20134;-74
2022/03/29 09:48:59;;;;;;;31.33;16.65;;;;;;;;;;5061527;28;20094;-74
2022/03/29 09:51:27;;;;;;;39.30;16.65;;;;;;;;;;5091150;28;20028;-74
2022/03/29 09:53:56;;;;;;;42.60;17.45;;;;;;;;;;5087166;28;20496;-74
2022/03/29 09:56:28;;;;;;;41.25;15.95;;;;;;;;;;5104137;28;20386;-73
2022/03/29 09:58:54;;;;;;;;;;;;;;;;;;5076640;28;20024;-74
2022/03/29 10:01:25;;;;;;;31.88;17.15;;;;;;;;;;5086803;28;21613;-74
2022/03/29 10:03:53;;;;;;;32.08;16.38;;;;;;;;;;5087924;28;20107;-74
2022/03/29 10:06:21;;;;;;;30.75;17.00;;;;;;;;;;5094778;28;20028;-74
2022/03/29 10:11:34;;;;;;;38.40;16.30;;;;;;;;;;5093623;28;20039;-74
2022/03/29 10:14:03;;;;;;;33.47;16.50;;;;;;;;;;5076017;28;20032;-73
2022/03/29 10:16:30;;;;;;;29.80;16.08;;;;;;;;;;5067678;28;20051;-73
2022/03/29 10:18:56;;;;;;;30.20;15.73;;;;;;;;;;5093292;28;20024;-74
2022/03/29 10:21:22;;;;;;;38.42;17.48;;;;;;;;;;5094080;28;20958;-73
2022/03/29 10:23:49;;;;;;;38.58;17.38;;;;;;;;;;5083539;28;20372;-74
2022/03/29 10:26:21;;;;;;;34.95;16.45;;;;;;;;;;5092635;28;20024;-73
2022/03/29 10:28:47;;;;;;;31.63;15.57;;;;;;;;;;5094472;28;20024;-72
2022/03/29 10:31:30;;;;;;;33.10;17.13;;;;;;;;;;5087871;28;20035;-73
2022/03/29 10:34:16;;;;;;;33.30;15.85;;;;;;;;;;5076279;28;20041;-73
2022/03/29 10:37:01;;;;;;;29.67;16.20;;;;;;;;;;5090817;28;20016;-73
2022/03/29 10:39:41;;;;;;;34.85;16.73;;;;;;;;;;5109500;28;20031;-72
2022/03/29 10:42:27;;;;;;;29.98;16.63;;;;;;;;;;5093546;28;20038;-73
2022/03/29 10:45:09;;;;;;;27.83;15.55;;;;;;;;;;5069260;28;20040;-73
2022/03/29 10:47:36;;;;;;;25.10;14.43;;;;;;;;;;5087336;28;20036;-73
2022/03/29 10:50:04;;;;;;;38.83;16.90;;;;;;;;;;5077152;28;20057;-73
2022/03/29 10:52:31;;;;;;;27.85;14.90;;;;;;;;;;5083485;28;20127;-73
2022/03/29 10:55:15;;;;;;;33.55;15.15;;;;;;;;;;5087865;28;20070;-73
2022/03/29 10:58:02;;;;;;;28.10;12.05;;;;;;;;;;5077718;28;20039;-73
2022/03/29 11:00:31;;;;;;;31.88;11.77;;;;;;;;;;5092430;28;20032;-73
2022/03/29 11:03:09;;;;;;;27.77;11.38;;;;;;;;;;5089901;28;20028;-73
2022/03/29 11:05:55;;;;;;;28.10;11.48;;;;;;;;;;5093707;28;20020;-73
2022/03/29 11:08:21;;;;;;;30.05;12.88;;;;;;;;;;5095325;28;20047;-73
2022/03/29 11:10:47;;;;;;;33.08;11.40;;;;;;;;;;5089435;28;20032;-73
2022/03/29 11:13:43;;;;;;;31.40;9.55;;;;;;;;;;5091891;28;20070;-73
2022/03/29 11:16:28;;;;;;;27.27;10.15;;;;;;;;;;5071803;28;20070;-73
2022/03/29 11:18:54;;;;;;;26.98;10.90;;;;;;;;;;5072954;28;20029;-73
2022/03/29 11:21:34;;;;;;;37.13;11.40;;;;;;;;;;5074026;28;20142;-72
2022/03/29 11:24:01;;;;;;;24.58;8.90;;;;;;;;;;5090976;28;20031;-73
2022/03/29 11:26:28;;;;;;;21.85;9.80;;;;;;;;;;5091575;28;20519;-72
2022/03/29 11:29:06;;;;;;;25.42;10.38;;;;;;;;;;5090253;28;20360;-71
2022/03/29 11:31:33;;;;;;;26.45;10.20;;;;;;;;;;5080073;28;20040;-73
2022/03/29 11:33:59;;;;;;;24.08;9.43;;;;;;;;;;5084541;28;20028;-71
2022/03/29 11:36:25;;;;;;;25.10;9.95;;;;;;;;;;5086579;28;20121;-72
2022/03/29 11:38:52;;;;;;;25.33;8.88;;;;;;;;;;5087773;28;20032;-72
2022/03/29 11:41:22;;;;;;;24.77;8.73;;;;;;;;;;5083279;28;20019;-72
2022/03/29 11:44:07;;;;;;;27.67;9.88;;;;;;;;;;5077489;28;20059;-73
2022/03/29 11:46:53;;;;;;;22.73;8.43;;;;;;;;;;5101774;28;20035;-72
2022/03/29 11:49:20;;;;;;;29.17;9.75;;;;;;;;;;5090347;28;20655;-72
2022/03/29 11:52:04;;;;;;;27.58;10.40;;;;;;;;;;5091530;28;20099;-73
2022/03/29 11:54:38;;;;;;;28.50;10.38;;;;;;;;;;5089988;28;20074;-72
2022/03/29 11:57:13;;;;;;;26.13;9.80;;;;;;;;;;5106645;28;20073;-72
2022/03/29 11:59:39;;;;;;;31.48;10.82;;;;;;;;;;5088272;28;20028;-72
2022/03/29 12:02:05;;;;;;;23.52;10.63;;;;;;;;;;5074826;28;20046;-72
2022/03/29 12:04:34;;;;;;;37.00;13.10;;;;;;;;;;5094763;28;20032;-72
2022/03/29 12:07:00;;;;;;;29.40;10.05;;;;;;;;;;5086663;28;20484;-72
2022/03/29 12:09:27;;;;;;;31.77;10.70;;;;;;;;;;5074731;28;20074;-73
2022/03/29 12:11:56;;;;;;;27.13;8.95;;;;;;;;;;5072432;28;20043;-72
2022/03/29 12:14:23;;;;;;;25.98;8.68;;;;;;;;;;5095943;28;20040;-74
2022/03/29 12:16:54;;;;;;;33.25;9.18;;;;;;;;;;5087859;28;20050;-73
2022/03/29 12:19:22;;;;;;;50.97;23.48;;;;;;;;;;5084383;28;20295;-72
2022/03/29 12:21:53;;;;;;;27.65;8.75;;;;;;;;;;5097805;28;20597;-72
2022/03/29 12:24:19;;;;;;;21.20;7.80;;;;;;;;;;5088006;28;20471;-72
2022/03/29 12:26:49;;;;;;;23.33;8.60;;;;;;;;;;5107345;28;20083;-72
2022/03/29 12:29:17;;;;;;;24.38;9.05;;;;;;;;;;5092445;28;20016;-72
2022/03/29 12:31:43;;;;;;;32.90;9.55;;;;;;;;;;5098488;28;20050;-72
2022/03/29 12:34:12;;;;;;;26.15;8.77;;;;;;;;;;5100774;28;20708;-73
2022/03/29 12:36:42;;;;;;;26.50;8.50;;;;;;;;;;5067970;28;20063;-72
2022/03/29 12:39:09;;;;;;;25.42;9.25;;;;;;;;;;5092363;28;20475;-72
2022/03/29 12:41:44;;;;;;;23.65;8.27;;;;;;;;;;5072256;28;20024;-72
2022/03/29 12:44:14;;;;;;;35.50;17.02;;;;;;;;;;5086159;28;20034;-72
2022/03/29 12:46:42;;;;;;;24.77;8.40;;;;;;;;;;5085896;28;20294;-73
2022/03/29 12:49:08;;;;;;;26.73;9.18;;;;;;;;;;5090379;28;20498;-72
2022/03/29 12:51:35;;;;;;;26.95;7.43;;;;;;;;;;5090329;28;20118;-72
2022/03/29 12:54:06;;;;;;;27.17;8.68;;;;;;;;;;5091087;28;20153;-72
2022/03/29 12:56:35;;;;;;;24.75;8.45;;;;;;;;;;5072111;28;20039;-72
2022/03/29 12:59:02;;;;;;;25.92;9.00;;;;;;;;;;5087552;28;20142;-72
2022/03/29 13:01:32;;;;;;;24.92;8.43;;;;;;;;;;5090516;28;20036;-72
2022/03/29 13:04:08;;;;;;;28.83;8.00;;;;;;;;;;5085735;28;20034;-73
2022/03/29 13:06:39;;;;;;;23.63;8.80;;;;;;;;;;5074043;28;20047;-73
2022/03/29 13:09:05;;;;;;;27.38;8.85;;;;;;;;;;5092272;28;20148;-72
2022/03/29 13:11:31;;;;;;;24.17;8.27;;;;;;;;;;5090855;28;20944;-73
2022/03/29 13:14:05;;;;;;;24.55;8.48;;;;;;;;;;5081455;28;20035;-73
2022/03/29 13:16:31;;;;;;;27.50;9.38;;;;;;;;;;5082041;28;20056;-73
2022/03/29 13:18:57;;;;;;;23.02;8.68;;;;;;;;;;5090688;28;20032;-73
2022/03/29 13:21:27;;;;;;;22.45;8.98;;;;;;;;;;5091498;28;20424;-73
2022/03/29 13:23:58;;;;;;;24.60;8.98;;;;;;;;;;5075241;28;20050;-72
2022/03/29 13:26:25;;;;;;;26.13;10.38;;;;;;;;;;5089947;28;20067;-73
2022/03/29 13:28:52;;;;;;;30.63;9.18;;;;;;;;;;5089986;28;20035;-72
2022/03/29 13:31:19;;;;;;;28.98;10.50;;;;;;;;;;5082738;28;20032;-72
2022/03/29 13:33:45;;;;;;;21.85;9.60;;;;;;;;;;5081252;28;20028;-72
2022/03/29 13:36:13;;;;;;;23.60;9.45;;;;;;;;;;5095060;28;20543;-72
2022/03/29 13:38:39;;;;;;;26.83;8.57;;;;;;;;;;5097008;28;20032;-73
2022/03/29 13:41:06;;;;;;;17.23;8.32;;;;;;;;;;5090047;28;20505;-73
2022/03/29 13:43:33;;;;;;;22.58;8.98;;;;;;;;;;5087445;28;20056;-72
2022/03/29 13:46:00;;;;;;;28.33;10.80;;;;;;;;;;5101949;28;20024;-73
2022/03/29 13:48:26;;;;;;;30.65;12.30;;;;;;;;;;5062379;28;20025;-73
2022/03/29 13:50:53;;;;;;;26.17;11.40;;;;;;;;;;5082445;28;20039;-72
2022/03/29 13:53:20;;;;;;;17.00;8.80;;;;;;;;;;5086720;28;20052;-72
2022/03/29 13:55:47;;;;;;;26.23;10.77;;;;;;;;;;5081591;28;20028;-72
2022/03/29 13:58:13;;;;;;;32.25;9.18;;;;;;;;;;5089332;28;20169;-73
2022/03/29 14:00:40;;;;;;;25.25;9.50;;;;;;;;;;5087564;28;20043;-72
2022/03/29 14:03:08;;;;;;;34.03;10.32;;;;;;;;;;5088415;28;20054;-72
2022/03/29 14:05:34;;;;;;;26.95;10.82;;;;;;;;;;5069712;28;20043;-72
2022/03/29 14:08:00;;;;;;;22.55;9.50;;;;;;;;;;5098579;28;20028;-73
2022/03/29 14:10:26;;;;;;;24.52;9.65;;;;;;;;;;5093684;28;20028;-73
2022/03/29 14:12:53;;;;;;;26.55;9.23;;;;;;;;;;5088283;28;20028;-73
2022/03/29 14:15:19;;;;;;;24.15;8.80;;;;;;;;;;5076045;28;20059;-72
2022/03/29 14:17:47;;;;;;;20.75;10.13;;;;;;;;;;5075512;28;20025;-71
2022/03/29 14:20:14;;;;;;;31.30;11.27;;;;;;;;;;5083601;28;20028;-71
2022/03/29 14:22:40;;;;;;;22.15;10.32;;;;;;;;;;5082441;28;20028;-72
2022/03/29 14:25:06;;;;;;;24.55;9.10;;;;;;;;;;5085370;28;20430;-74
2022/03/29 14:27:32;;;;;;;24.33;8.85;;;;;;;;;;5095266;28;20035;-74
2022/03/29 14:29:58;;;;;;;25.73;9.80;;;;;;;;;;5093248;28;20512;-73
2022/03/29 14:32:25;;;;;;;22.08;8.90;;;;;;;;;;5089169;28;20510;-73
2022/03/29 14:34:51;;;;;;;21.00;9.32;;;;;;;;;;5094819;28;20039;-73